sensor_id;sensor_type;location;lat;lon;timestamp;temperature;humidity
11908;DHT22;6014;47.690;9.130;2023-06-05T00:01:43;13.00;99.90
11908;DHT22;6014;47.690;9.130;2023-06-05T00:04:11;13.00;99.90
11908;DHT22;6014;47.690;9.130;2023-06-05T00:06:40;12.90;99.90
11908;DHT22;6014;47.690;9.130;2023-06-05T00:09:09;13.00;99.90
11908;DHT22;6014;47.690;9.130;2023-06-05T00:11:39;12.90;99.90
11908;DHT22;6014;47.690;9.130;2023-06-05T00:14:08;13.00;99.90
11908;DHT22;6014;47.690;9.130;2023-06-05T00:16:36;13.00;99.90
11908;DHT22;6014;47.690;9.130;2023-06-05T00:19:06;13.00;99.90
11908;DHT22;6014;47.690;9.130;2023-06-05T00:21:34;13.10;99.90
11908;DHT22;6014;47.690;9.130;2023-06-05T00:24:03;13.10;99.90
11908;DHT22;6014;47.690;9.130;2023-06-05T00:26:31;13.10;99.90
11908;DHT22;6014;47.690;9.130;2023-06-05T00:29:00;13.10;99.90
11908;DHT22;6014;47.690;9.130;2023-06-05T00:31:28;13.10;99.90
11908;DHT22;6014;47.690;9.130;2023-06-05T00:33:57;13.00;99.90
11908;DHT22;6014;47.690;9.130;2023-06-05T00:36:26;13.00;99.90
11908;DHT22;6014;47.690;9.130;2023-06-05T00:38:55;12.90;99.90
11908;DHT22;6014;47.690;9.130;2023-06-05T00:41:23;12.90;99.90
11908;DHT22;6014;47.690;9.130;2023-06-05T00:43:52;12.90;99.90
11908;DHT22;6014;47.690;9.130;2023-06-05T00:46:21;12.80;99.90
11908;DHT22;6014;47.690;9.130;2023-06-05T00:48:50;12.80;99.90
11908;DHT22;6014;47.690;9.130;2023-06-05T00:51:18;12.70;99.90
11908;DHT22;6014;47.690;9.130;2023-06-05T00:53:48;12.70;99.90
11908;DHT22;6014;47.690;9.130;2023-06-05T00:56:17;12.70;99.90
11908;DHT22;6014;47.690;9.130;2023-06-05T00:58:48;12.60;99.90
11908;DHT22;6014;47.690;9.130;2023-06-05T01:01:16;12.60;99.90
11908;DHT22;6014;47.690;9.130;2023-06-05T01:03:47;12.50;99.90
11908;DHT22;6014;47.690;9.130;2023-06-05T01:06:15;12.50;99.90
11908;DHT22;6014;47.690;9.130;2023-06-05T01:08:45;12.40;99.90
11908;DHT22;6014;47.690;9.130;2023-06-05T01:11:22;12.40;99.90
11908;DHT22;6014;47.690;9.130;2023-06-05T01:13:57;12.30;99.90
11908;DHT22;6014;47.690;9.130;2023-06-05T01:16:29;12.20;99.90
11908;DHT22;6014;47.690;9.130;2023-06-05T01:19:00;12.20;99.90
11908;DHT22;6014;47.690;9.130;2023-06-05T01:21:30;12.10;99.90
11908;DHT22;6014;47.690;9.130;2023-06-05T01:24:00;12.00;99.90
11908;DHT22;6014;47.690;9.130;2023-06-05T01:26:33;12.00;99.90
11908;DHT22;6014;47.690;9.130;2023-06-05T01:29:04;12.00;99.90
11908;DHT22;6014;47.690;9.130;2023-06-05T01:31:35;12.00;99.90
11908;DHT22;6014;47.690;9.130;2023-06-05T01:34:08;11.90;99.90
11908;DHT22;6014;47.690;9.130;2023-06-05T01:36:40;11.90;99.90
11908;DHT22;6014;47.690;9.130;2023-06-05T01:39:10;12.00;99.90
11908;DHT22;6014;47.690;9.130;2023-06-05T01:41:40;11.90;99.90
11908;DHT22;6014;47.690;9.130;2023-06-05T01:44:09;11.70;99.90
11908;DHT22;6014;47.690;9.130;2023-06-05T01:46:41;11.70;99.90
11908;DHT22;6014;47.690;9.130;2023-06-05T01:49:12;11.80;99.90
11908;DHT22;6014;47.690;9.130;2023-06-05T01:51:40;11.60;99.90
11908;DHT22;6014;47.690;9.130;2023-06-05T01:54:09;11.70;99.90
11908;DHT22;6014;47.690;9.130;2023-06-05T01:56:37;11.70;99.90
11908;DHT22;6014;47.690;9.130;2023-06-05T01:59:06;11.70;99.90
11908;DHT22;6014;47.690;9.130;2023-06-05T02:01:35;11.70;99.90
11908;DHT22;6014;47.690;9.130;2023-06-05T02:04:03;11.60;99.90
11908;DHT22;6014;47.690;9.130;2023-06-05T02:06:33;11.70;99.90
11908;DHT22;6014;47.690;9.130;2023-06-05T02:09:09;11.60;99.90
11908;DHT22;6014;47.690;9.130;2023-06-05T02:11:40;11.60;99.90
11908;DHT22;6014;47.690;9.130;2023-06-05T02:14:09;11.60;99.90
11908;DHT22;6014;47.690;9.130;2023-06-05T02:16:40;11.60;99.90
11908;DHT22;6014;47.690;9.130;2023-06-05T02:19:09;11.60;99.90
11908;DHT22;6014;47.690;9.130;2023-06-05T02:21:38;11.60;99.90
11908;DHT22;6014;47.690;9.130;2023-06-05T02:24:06;11.50;99.90
11908;DHT22;6014;47.690;9.130;2023-06-05T02:26:36;11.50;99.90
11908;DHT22;6014;47.690;9.130;2023-06-05T02:29:04;11.50;99.90
11908;DHT22;6014;47.690;9.130;2023-06-05T02:31:33;11.50;99.90
11908;DHT22;6014;47.690;9.130;2023-06-05T02:34:01;11.40;99.90
11908;DHT22;6014;47.690;9.130;2023-06-05T02:36:30;11.50;99.90
11908;DHT22;6014;47.690;9.130;2023-06-05T02:39:00;11.40;99.90
11908;DHT22;6014;47.690;9.130;2023-06-05T02:41:28;11.50;99.90
11908;DHT22;6014;47.690;9.130;2023-06-05T02:43:58;11.40;99.90
11908;DHT22;6014;47.690;9.130;2023-06-05T02:46:27;11.40;99.90
11908;DHT22;6014;47.690;9.130;2023-06-05T02:48:55;11.40;99.90
11908;DHT22;6014;47.690;9.130;2023-06-05T02:51:23;11.40;99.90
11908;DHT22;6014;47.690;9.130;2023-06-05T02:53:52;11.40;99.90
11908;DHT22;6014;47.690;9.130;2023-06-05T02:56:20;11.40;99.90
11908;DHT22;6014;47.690;9.130;2023-06-05T02:58:53;11.30;99.90
11908;DHT22;6014;47.690;9.130;2023-06-05T03:01:24;11.30;99.90
11908;DHT22;6014;47.690;9.130;2023-06-05T03:04:01;11.30;99.90
11908;DHT22;6014;47.690;9.130;2023-06-05T03:06:30;11.30;99.90
11908;DHT22;6014;47.690;9.130;2023-06-05T03:09:01;11.30;99.90
11908;DHT22;6014;47.690;9.130;2023-06-05T03:11:30;11.30;99.90
11908;DHT22;6014;47.690;9.130;2023-06-05T03:13:58;11.30;99.90
11908;DHT22;6014;47.690;9.130;2023-06-05T03:16:27;11.30;99.90
11908;DHT22;6014;47.690;9.130;2023-06-05T03:19:00;11.30;99.90
11908;DHT22;6014;47.690;9.130;2023-06-05T03:21:28;11.20;99.90
11908;DHT22;6014;47.690;9.130;2023-06-05T03:23:57;11.20;99.90
11908;DHT22;6014;47.690;9.130;2023-06-05T03:26:25;11.30;99.90
11908;DHT22;6014;47.690;9.130;2023-06-05T03:28:53;11.20;99.90
11908;DHT22;6014;47.690;9.130;2023-06-05T03:31:21;11.20;99.90
11908;DHT22;6014;47.690;9.130;2023-06-05T03:33:51;11.20;99.90
11908;DHT22;6014;47.690;9.130;2023-06-05T03:36:19;11.20;99.90
11908;DHT22;6014;47.690;9.130;2023-06-05T03:38:48;11.20;99.90
11908;DHT22;6014;47.690;9.130;2023-06-05T03:41:16;11.20;99.90
11908;DHT22;6014;47.690;9.130;2023-06-05T03:43:45;11.20;99.90
11908;DHT22;6014;47.690;9.130;2023-06-05T03:46:13;11.20;99.90
11908;DHT22;6014;47.690;9.130;2023-06-05T03:48:45;11.20;99.90
11908;DHT22;6014;47.690;9.130;2023-06-05T03:51:14;11.20;99.90
11908;DHT22;6014;47.690;9.130;2023-06-05T03:53:45;11.20;99.90
11908;DHT22;6014;47.690;9.130;2023-06-05T03:56:21;11.20;99.90
11908;DHT22;6014;47.690;9.130;2023-06-05T03:58:50;11.20;99.90
11908;DHT22;6014;47.690;9.130;2023-06-05T04:01:19;11.20;99.90
11908;DHT22;6014;47.690;9.130;2023-06-05T04:03:47;11.30;99.90
11908;DHT22;6014;47.690;9.130;2023-06-05T04:06:16;11.30;99.90
11908;DHT22;6014;47.690;9.130;2023-06-05T04:08:45;11.40;99.90
11908;DHT22;6014;47.690;9.130;2023-06-05T04:11:13;11.40;99.90
11908;DHT22;6014;47.690;9.130;2023-06-05T04:13:42;11.40;99.90
11908;DHT22;6014;47.690;9.130;2023-06-05T04:16:10;11.40;99.90
11908;DHT22;6014;47.690;9.130;2023-06-05T04:18:40;11.40;99.90
11908;DHT22;6014;47.690;9.130;2023-06-05T04:21:08;11.50;99.90
11908;DHT22;6014;47.690;9.130;2023-06-05T04:23:38;11.50;99.90
11908;DHT22;6014;47.690;9.130;2023-06-05T04:26:06;11.60;99.90
11908;DHT22;6014;47.690;9.130;2023-06-05T04:28:34;11.60;99.90
11908;DHT22;6014;47.690;9.130;2023-06-05T04:31:02;11.70;99.90
11908;DHT22;6014;47.690;9.130;2023-06-05T04:33:30;11.80;99.90
11908;DHT22;6014;47.690;9.130;2023-06-05T04:35:59;11.90;99.90
11908;DHT22;6014;47.690;9.130;2023-06-05T04:38:27;12.10;99.90
11908;DHT22;6014;47.690;9.130;2023-06-05T04:40:56;12.20;99.90
11908;DHT22;6014;47.690;9.130;2023-06-05T04:43:25;12.30;99.90
11908;DHT22;6014;47.690;9.130;2023-06-05T04:45:54;12.40;99.90
11908;DHT22;6014;47.690;9.130;2023-06-05T04:48:22;12.60;99.90
11908;DHT22;6014;47.690;9.130;2023-06-05T04:50:50;12.70;99.90
11908;DHT22;6014;47.690;9.130;2023-06-05T04:53:20;12.80;99.90
11908;DHT22;6014;47.690;9.130;2023-06-05T04:55:48;12.90;99.90
11908;DHT22;6014;47.690;9.130;2023-06-05T04:58:18;13.10;99.90
11908;DHT22;6014;47.690;9.130;2023-06-05T05:00:46;13.20;99.90
11908;DHT22;6014;47.690;9.130;2023-06-05T05:03:16;13.20;99.90
11908;DHT22;6014;47.690;9.130;2023-06-05T05:05:44;13.40;99.90
11908;DHT22;6014;47.690;9.130;2023-06-05T05:08:12;13.40;99.90
11908;DHT22;6014;47.690;9.130;2023-06-05T05:10:40;13.40;99.90
11908;DHT22;6014;47.690;9.130;2023-06-05T05:13:09;13.60;99.90
11908;DHT22;6014;47.690;9.130;2023-06-05T05:15:38;13.70;99.90
11908;DHT22;6014;47.690;9.130;2023-06-05T05:18:06;13.90;99.90
11908;DHT22;6014;47.690;9.130;2023-06-05T05:20:35;14.10;99.90
11908;DHT22;6014;47.690;9.130;2023-06-05T05:23:05;14.20;99.90
11908;DHT22;6014;47.690;9.130;2023-06-05T05:25:37;14.40;99.90
11908;DHT22;6014;47.690;9.130;2023-06-05T05:28:05;15.00;99.90
11908;DHT22;6014;47.690;9.130;2023-06-05T05:30:33;15.60;99.90
11908;DHT22;6014;47.690;9.130;2023-06-05T05:33:03;16.20;99.90
11908;DHT22;6014;47.690;9.130;2023-06-05T05:35:31;17.00;99.90
11908;DHT22;6014;47.690;9.130;2023-06-05T05:38:00;17.60;99.90
11908;DHT22;6014;47.690;9.130;2023-06-05T05:40:28;18.00;99.90
11908;DHT22;6014;47.690;9.130;2023-06-05T05:42:56;18.10;99.90
11908;DHT22;6014;47.690;9.130;2023-06-05T05:45:24;18.30;99.90
11908;DHT22;6014;47.690;9.130;2023-06-05T05:47:53;18.20;99.50
11908;DHT22;6014;47.690;9.130;2023-06-05T05:50:23;18.40;94.90
11908;DHT22;6014;47.690;9.130;2023-06-05T05:52:51;18.80;90.00
11908;DHT22;6014;47.690;9.130;2023-06-05T05:55:20;18.80;89.10
11908;DHT22;6014;47.690;9.130;2023-06-05T05:57:48;19.10;84.00
11908;DHT22;6014;47.690;9.130;2023-06-05T06:00:17;18.90;90.20
11908;DHT22;6014;47.690;9.130;2023-06-05T06:02:45;18.90;80.50
11908;DHT22;6014;47.690;9.130;2023-06-05T06:05:14;19.10;80.50
11908;DHT22;6014;47.690;9.130;2023-06-05T06:07:43;18.60;75.10
11908;DHT22;6014;47.690;9.130;2023-06-05T06:10:12;18.70;76.80
11908;DHT22;6014;47.690;9.130;2023-06-05T06:12:40;18.60;76.70
11908;DHT22;6014;47.690;9.130;2023-06-05T06:15:09;18.70;77.80
11908;DHT22;6014;47.690;9.130;2023-06-05T06:17:38;19.10;78.40
11908;DHT22;6014;47.690;9.130;2023-06-05T06:20:07;18.90;73.40
11908;DHT22;6014;47.690;9.130;2023-06-05T06:22:40;18.80;70.80
11908;DHT22;6014;47.690;9.130;2023-06-05T06:25:11;19.00;68.40
11908;DHT22;6014;47.690;9.130;2023-06-05T06:27:41;19.40;70.00
11908;DHT22;6014;47.690;9.130;2023-06-05T06:30:10;19.40;67.30
11908;DHT22;6014;47.690;9.130;2023-06-05T06:32:39;19.40;63.40
11908;DHT22;6014;47.690;9.130;2023-06-05T06:35:07;19.70;62.60
11908;DHT22;6014;47.690;9.130;2023-06-05T06:37:36;20.00;61.10
11908;DHT22;6014;47.690;9.130;2023-06-05T06:40:05;20.50;55.30
11908;DHT22;6014;47.690;9.130;2023-06-05T06:42:37;20.60;51.40
11908;DHT22;6014;47.690;9.130;2023-06-05T06:45:06;20.90;49.50
11908;DHT22;6014;47.690;9.130;2023-06-05T06:47:35;21.20;49.40
11908;DHT22;6014;47.690;9.130;2023-06-05T06:50:04;21.40;47.00
11908;DHT22;6014;47.690;9.130;2023-06-05T06:52:32;22.00;47.50
11908;DHT22;6014;47.690;9.130;2023-06-05T06:55:00;21.60;45.80
11908;DHT22;6014;47.690;9.130;2023-06-05T06:57:28;21.50;44.50
11908;DHT22;6014;47.690;9.130;2023-06-05T06:59:58;21.50;45.40
11908;DHT22;6014;47.690;9.130;2023-06-05T07:02:26;21.60;44.00
11908;DHT22;6014;47.690;9.130;2023-06-05T07:04:54;22.00;44.80
11908;DHT22;6014;47.690;9.130;2023-06-05T07:07:24;21.80;43.20
11908;DHT22;6014;47.690;9.130;2023-06-05T07:09:52;21.40;44.00
11908;DHT22;6014;47.690;9.130;2023-06-05T07:12:20;21.40;45.50
11908;DHT22;6014;47.690;9.130;2023-06-05T07:14:49;20.80;46.60
11908;DHT22;6014;47.690;9.130;2023-06-05T07:17:19;20.20;52.00
11908;DHT22;6014;47.690;9.130;2023-06-05T07:19:48;19.90;53.60
11908;DHT22;6014;47.690;9.130;2023-06-05T07:22:17;19.80;55.60
11908;DHT22;6014;47.690;9.130;2023-06-05T07:24:45;20.60;53.70
11908;DHT22;6014;47.690;9.130;2023-06-05T07:27:15;20.60;55.00
11908;DHT22;6014;47.690;9.130;2023-06-05T07:29:45;21.50;49.60
11908;DHT22;6014;47.690;9.130;2023-06-05T07:32:17;21.50;46.40
11908;DHT22;6014;47.690;9.130;2023-06-05T07:34:48;22.30;45.30
11908;DHT22;6014;47.690;9.130;2023-06-05T07:37:17;22.80;46.50
11908;DHT22;6014;47.690;9.130;2023-06-05T07:39:45;23.20;42.20
11908;DHT22;6014;47.690;9.130;2023-06-05T07:42:13;23.10;40.00
11908;DHT22;6014;47.690;9.130;2023-06-05T07:44:42;22.90;39.00
11908;DHT22;6014;47.690;9.130;2023-06-05T07:47:10;23.00;40.70
11908;DHT22;6014;47.690;9.130;2023-06-05T07:49:39;23.40;40.60
11908;DHT22;6014;47.690;9.130;2023-06-05T07:52:08;23.50;39.50
11908;DHT22;6014;47.690;9.130;2023-06-05T07:54:36;23.50;37.80
11908;DHT22;6014;47.690;9.130;2023-06-05T07:57:05;23.70;37.80
11908;DHT22;6014;47.690;9.130;2023-06-05T07:59:34;24.00;37.80
11908;DHT22;6014;47.690;9.130;2023-06-05T08:02:03;24.40;37.10
11908;DHT22;6014;47.690;9.130;2023-06-05T08:04:32;24.20;37.10
11908;DHT22;6014;47.690;9.130;2023-06-05T08:07:00;24.20;38.50
11908;DHT22;6014;47.690;9.130;2023-06-05T08:09:30;24.30;38.20
11908;DHT22;6014;47.690;9.130;2023-06-05T08:12:00;24.40;38.20
11908;DHT22;6014;47.690;9.130;2023-06-05T08:14:28;24.60;41.30
11908;DHT22;6014;47.690;9.130;2023-06-05T08:16:57;24.70;38.50
11908;DHT22;6014;47.690;9.130;2023-06-05T08:19:25;25.00;36.10
11908;DHT22;6014;47.690;9.130;2023-06-05T08:21:53;24.90;39.00
11908;DHT22;6014;47.690;9.130;2023-06-05T08:24:23;25.40;38.10
11908;DHT22;6014;47.690;9.130;2023-06-05T08:26:55;25.50;38.20
11908;DHT22;6014;47.690;9.130;2023-06-05T08:29:26;25.40;34.60
11908;DHT22;6014;47.690;9.130;2023-06-05T08:31:54;24.70;35.80
11908;DHT22;6014;47.690;9.130;2023-06-05T08:34:22;24.60;38.60
11908;DHT22;6014;47.690;9.130;2023-06-05T08:36:52;24.80;38.60
11908;DHT22;6014;47.690;9.130;2023-06-05T08:39:25;24.80;41.10
11908;DHT22;6014;47.690;9.130;2023-06-05T08:42:00;25.10;38.90
11908;DHT22;6014;47.690;9.130;2023-06-05T08:44:30;24.70;39.50
11908;DHT22;6014;47.690;9.130;2023-06-05T08:47:01;25.10;40.10
11908;DHT22;6014;47.690;9.130;2023-06-05T08:49:30;24.50;41.20
11908;DHT22;6014;47.690;9.130;2023-06-05T08:52:05;24.10;41.60
11908;DHT22;6014;47.690;9.130;2023-06-05T08:54:37;24.20;42.50
11908;DHT22;6014;47.690;9.130;2023-06-05T08:57:08;24.40;41.30
11908;DHT22;6014;47.690;9.130;2023-06-05T08:59:38;24.20;42.50
11908;DHT22;6014;47.690;9.130;2023-06-05T09:02:06;24.60;43.70
11908;DHT22;6014;47.690;9.130;2023-06-05T09:04:34;25.40;44.00
11908;DHT22;6014;47.690;9.130;2023-06-05T09:07:03;25.70;39.50
11908;DHT22;6014;47.690;9.130;2023-06-05T09:09:31;25.20;38.90
11908;DHT22;6014;47.690;9.130;2023-06-05T09:12:02;25.60;39.10
11908;DHT22;6014;47.690;9.130;2023-06-05T09:14:32;25.30;39.70
11908;DHT22;6014;47.690;9.130;2023-06-05T09:17:02;25.70;42.30
11908;DHT22;6014;47.690;9.130;2023-06-05T09:19:37;26.10;37.80
11908;DHT22;6014;47.690;9.130;2023-06-05T09:22:06;26.20;38.80
11908;DHT22;6014;47.690;9.130;2023-06-05T09:24:35;26.70;38.50
11908;DHT22;6014;47.690;9.130;2023-06-05T09:27:05;26.40;36.30
11908;DHT22;6014;47.690;9.130;2023-06-05T09:29:37;25.90;39.60
11908;DHT22;6014;47.690;9.130;2023-06-05T09:32:08;26.20;38.70
11908;DHT22;6014;47.690;9.130;2023-06-05T09:34:37;26.50;38.70
11908;DHT22;6014;47.690;9.130;2023-06-05T09:37:07;26.90;37.10
11908;DHT22;6014;47.690;9.130;2023-06-05T09:39:37;26.10;37.00
11908;DHT22;6014;47.690;9.130;2023-06-05T09:42:06;26.60;38.60
11908;DHT22;6014;47.690;9.130;2023-06-05T09:44:36;26.50;39.10
11908;DHT22;6014;47.690;9.130;2023-06-05T09:47:06;27.10;37.20
11908;DHT22;6014;47.690;9.130;2023-06-05T09:49:46;26.50;39.10
11908;DHT22;6014;47.690;9.130;2023-06-05T09:52:15;26.70;37.30
11908;DHT22;6014;47.690;9.130;2023-06-05T09:54:45;26.60;37.70
11908;DHT22;6014;47.690;9.130;2023-06-05T09:57:14;27.30;39.40
11908;DHT22;6014;47.690;9.130;2023-06-05T09:59:50;27.80;36.10
11908;DHT22;6014;47.690;9.130;2023-06-05T10:02:22;27.70;35.00
11908;DHT22;6014;47.690;9.130;2023-06-05T10:04:56;27.40;33.90
11908;DHT22;6014;47.690;9.130;2023-06-05T10:07:24;27.40;35.30
11908;DHT22;6014;47.690;9.130;2023-06-05T10:09:53;27.10;37.80
11908;DHT22;6014;47.690;9.130;2023-06-05T10:12:23;27.30;35.80
11908;DHT22;6014;47.690;9.130;2023-06-05T10:14:55;27.70;33.90
11908;DHT22;6014;47.690;9.130;2023-06-05T10:17:24;27.70;34.80
11908;DHT22;6014;47.690;9.130;2023-06-05T10:19:53;27.10;37.70
11908;DHT22;6014;47.690;9.130;2023-06-05T10:22:24;26.50;38.00
11908;DHT22;6014;47.690;9.130;2023-06-05T10:24:56;27.20;37.40
11908;DHT22;6014;47.690;9.130;2023-06-05T10:27:47;27.70;34.70
11908;DHT22;6014;47.690;9.130;2023-06-05T10:30:48;28.50;34.10
11908;DHT22;6014;47.690;9.130;2023-06-05T10:33:39;27.90;31.20
11908;DHT22;6014;47.690;9.130;2023-06-05T10:36:23;28.50;32.70
11908;DHT22;6014;47.690;9.130;2023-06-05T10:38:57;28.20;31.00
11908;DHT22;6014;47.690;9.130;2023-06-05T10:41:27;28.30;30.00
11908;DHT22;6014;47.690;9.130;2023-06-05T10:43:55;27.60;30.00
11908;DHT22;6014;47.690;9.130;2023-06-05T10:46:31;27.40;31.20
11908;DHT22;6014;47.690;9.130;2023-06-05T10:49:10;26.30;32.60
11908;DHT22;6014;47.690;9.130;2023-06-05T10:51:40;26.40;35.00
11908;DHT22;6014;47.690;9.130;2023-06-05T10:54:11;27.20;34.30
11908;DHT22;6014;47.690;9.130;2023-06-05T10:57:01;27.20;33.40
11908;DHT22;6014;47.690;9.130;2023-06-05T10:59:31;27.60;31.10
11908;DHT22;6014;47.690;9.130;2023-06-05T11:02:27;28.30;29.80
11908;DHT22;6014;47.690;9.130;2023-06-05T11:05:05;28.60;27.60
11908;DHT22;6014;47.690;9.130;2023-06-05T11:07:34;28.80;29.10
11908;DHT22;6014;47.690;9.130;2023-06-05T11:10:06;29.30;28.40
11908;DHT22;6014;47.690;9.130;2023-06-05T11:12:58;29.20;27.00
11908;DHT22;6014;47.690;9.130;2023-06-05T11:15:37;29.70;26.70
11908;DHT22;6014;47.690;9.130;2023-06-05T11:21:13;28.80;27.80
11908;DHT22;6014;47.690;9.130;2023-06-05T11:24:13;28.90;25.90
11908;DHT22;6014;47.690;9.130;2023-06-05T11:26:41;28.80;26.80
11908;DHT22;6014;47.690;9.130;2023-06-05T11:29:13;28.60;25.50
11908;DHT22;6014;47.690;9.130;2023-06-05T11:31:44;28.30;28.00
11908;DHT22;6014;47.690;9.130;2023-06-05T11:34:13;28.70;27.60
11908;DHT22;6014;47.690;9.130;2023-06-05T11:36:43;29.10;26.10
11908;DHT22;6014;47.690;9.130;2023-06-05T11:39:11;29.10;25.40
11908;DHT22;6014;47.690;9.130;2023-06-05T11:41:45;28.90;25.90
11908;DHT22;6014;47.690;9.130;2023-06-05T11:44:14;29.60;25.90
11908;DHT22;6014;47.690;9.130;2023-06-05T11:46:43;29.10;23.20
11908;DHT22;6014;47.690;9.130;2023-06-05T11:49:23;29.90;25.40
11908;DHT22;6014;47.690;9.130;2023-06-05T11:51:55;30.20;24.10
11908;DHT22;6014;47.690;9.130;2023-06-05T11:54:25;29.90;24.40
11908;DHT22;6014;47.690;9.130;2023-06-05T11:56:57;29.60;24.20
11908;DHT22;6014;47.690;9.130;2023-06-05T11:59:25;28.90;25.60
11908;DHT22;6014;47.690;9.130;2023-06-05T12:01:54;28.70;25.70
11908;DHT22;6014;47.690;9.130;2023-06-05T12:04:22;27.80;25.40
11908;DHT22;6014;47.690;9.130;2023-06-05T12:06:51;27.30;26.20
11908;DHT22;6014;47.690;9.130;2023-06-05T12:09:21;27.00;27.00
11908;DHT22;6014;47.690;9.130;2023-06-05T12:11:49;27.70;26.60
11908;DHT22;6014;47.690;9.130;2023-06-05T12:14:31;28.30;25.40
11908;DHT22;6014;47.690;9.130;2023-06-05T12:16:59;28.50;25.10
11908;DHT22;6014;47.690;9.130;2023-06-05T12:19:29;28.40;25.00
11908;DHT22;6014;47.690;9.130;2023-06-05T12:22:05;27.30;26.80
11908;DHT22;6014;47.690;9.130;2023-06-05T12:24:34;26.40;27.10
11908;DHT22;6014;47.690;9.130;2023-06-05T12:27:03;25.60;28.80
11908;DHT22;6014;47.690;9.130;2023-06-05T12:29:34;26.50;30.50
11908;DHT22;6014;47.690;9.130;2023-06-05T12:32:20;28.10;26.60
11908;DHT22;6014;47.690;9.130;2023-06-05T12:34:50;29.10;24.20
11908;DHT22;6014;47.690;9.130;2023-06-05T12:37:22;29.50;23.40
11908;DHT22;6014;47.690;9.130;2023-06-05T12:39:52;29.40;22.30
11908;DHT22;6014;47.690;9.130;2023-06-05T12:42:20;29.50;21.70
11908;DHT22;6014;47.690;9.130;2023-06-05T12:44:49;28.80;23.00
11908;DHT22;6014;47.690;9.130;2023-06-05T12:47:17;29.60;24.30
11908;DHT22;6014;47.690;9.130;2023-06-05T12:49:46;27.60;29.80
11908;DHT22;6014;47.690;9.130;2023-06-05T12:52:14;26.90;42.30
11908;DHT22;6014;47.690;9.130;2023-06-05T12:54:42;25.90;49.80
11908;DHT22;6014;47.690;9.130;2023-06-05T12:57:11;25.30;58.50
11908;DHT22;6014;47.690;9.130;2023-06-05T12:59:40;25.20;66.70
11908;DHT22;6014;47.690;9.130;2023-06-05T13:02:08;25.10;52.90
11908;DHT22;6014;47.690;9.130;2023-06-05T13:04:36;25.10;57.70
11908;DHT22;6014;47.690;9.130;2023-06-05T13:07:05;26.70;50.50
11908;DHT22;6014;47.690;9.130;2023-06-05T13:09:33;27.60;46.80
11908;DHT22;6014;47.690;9.130;2023-06-05T13:12:01;28.80;39.00
11908;DHT22;6014;47.690;9.130;2023-06-05T13:14:32;29.80;31.20
11908;DHT22;6014;47.690;9.130;2023-06-05T13:17:01;30.20;28.40
11908;DHT22;6014;47.690;9.130;2023-06-05T13:19:29;30.00;25.70
11908;DHT22;6014;47.690;9.130;2023-06-05T13:21:58;30.00;24.90
11908;DHT22;6014;47.690;9.130;2023-06-05T13:24:26;30.20;24.30
11908;DHT22;6014;47.690;9.130;2023-06-05T13:26:54;30.00;23.90
11908;DHT22;6014;47.690;9.130;2023-06-05T13:29:22;29.40;24.60
11908;DHT22;6014;47.690;9.130;2023-06-05T13:31:52;29.60;24.30
11908;DHT22;6014;47.690;9.130;2023-06-05T13:34:20;29.40;24.50
11908;DHT22;6014;47.690;9.130;2023-06-05T13:36:48;30.00;23.80
11908;DHT22;6014;47.690;9.130;2023-06-05T13:39:25;30.20;20.90
11908;DHT22;6014;47.690;9.130;2023-06-05T13:41:53;30.40;22.70
11908;DHT22;6014;47.690;9.130;2023-06-05T13:44:22;30.80;23.00
11908;DHT22;6014;47.690;9.130;2023-06-05T13:46:51;30.70;20.50
11908;DHT22;6014;47.690;9.130;2023-06-05T13:49:19;30.40;21.10
11908;DHT22;6014;47.690;9.130;2023-06-05T13:51:47;30.10;20.70
11908;DHT22;6014;47.690;9.130;2023-06-05T13:54:16;30.00;20.60
11908;DHT22;6014;47.690;9.130;2023-06-05T13:56:53;30.20;20.10
11908;DHT22;6014;47.690;9.130;2023-06-05T13:59:21;29.50;20.40
11908;DHT22;6014;47.690;9.130;2023-06-05T14:01:50;29.10;22.00
11908;DHT22;6014;47.690;9.130;2023-06-05T14:04:19;28.30;21.80
11908;DHT22;6014;47.690;9.130;2023-06-05T14:06:48;27.90;22.20
11908;DHT22;6014;47.690;9.130;2023-06-05T14:09:17;27.60;22.40
11908;DHT22;6014;47.690;9.130;2023-06-05T14:11:45;27.80;23.00
11908;DHT22;6014;47.690;9.130;2023-06-05T14:14:14;28.90;21.60
11908;DHT22;6014;47.690;9.130;2023-06-05T14:16:42;29.60;21.60
11908;DHT22;6014;47.690;9.130;2023-06-05T14:19:11;29.80;21.80
11908;DHT22;6014;47.690;9.130;2023-06-05T14:21:40;30.20;21.00
11908;DHT22;6014;47.690;9.130;2023-06-05T14:24:09;29.80;19.10
11908;DHT22;6014;47.690;9.130;2023-06-05T14:26:38;29.90;20.10
11908;DHT22;6014;47.690;9.130;2023-06-05T14:29:07;29.90;19.00
11908;DHT22;6014;47.690;9.130;2023-06-05T14:31:35;29.30;19.40
11908;DHT22;6014;47.690;9.130;2023-06-05T14:34:04;29.10;19.70
11908;DHT22;6014;47.690;9.130;2023-06-05T14:36:32;29.30;20.30
11908;DHT22;6014;47.690;9.130;2023-06-05T14:39:02;30.00;20.30
11908;DHT22;6014;47.690;9.130;2023-06-05T14:41:30;30.00;19.40
11908;DHT22;6014;47.690;9.130;2023-06-05T14:43:59;30.60;19.90
11908;DHT22;6014;47.690;9.130;2023-06-05T14:46:47;29.20;18.00
11908;DHT22;6014;47.690;9.130;2023-06-05T14:49:15;28.30;20.20
11908;DHT22;6014;47.690;9.130;2023-06-05T14:51:45;27.40;20.40
11908;DHT22;6014;47.690;9.130;2023-06-05T14:54:14;26.80;21.20
11908;DHT22;6014;47.690;9.130;2023-06-05T14:56:43;27.90;22.90
11908;DHT22;6014;47.690;9.130;2023-06-05T14:59:12;29.10;20.20
11908;DHT22;6014;47.690;9.130;2023-06-05T15:01:53;29.80;18.40
11908;DHT22;6014;47.690;9.130;2023-06-05T15:04:22;29.90;17.90
11908;DHT22;6014;47.690;9.130;2023-06-05T15:06:50;30.00;17.20
11908;DHT22;6014;47.690;9.130;2023-06-05T15:09:22;30.00;17.20
11908;DHT22;6014;47.690;9.130;2023-06-05T15:11:50;30.30;16.70
11908;DHT22;6014;47.690;9.130;2023-06-05T15:14:19;30.30;18.20
11908;DHT22;6014;47.690;9.130;2023-06-05T15:16:47;29.80;15.60
11908;DHT22;6014;47.690;9.130;2023-06-05T15:19:16;29.60;17.00
11908;DHT22;6014;47.690;9.130;2023-06-05T15:21:44;29.10;17.50
11908;DHT22;6014;47.690;9.130;2023-06-05T15:24:12;28.80;16.20
11908;DHT22;6014;47.690;9.130;2023-06-05T15:26:42;27.90;17.60
11908;DHT22;6014;47.690;9.130;2023-06-05T15:29:10;27.30;18.00
11908;DHT22;6014;47.690;9.130;2023-06-05T15:31:38;27.80;17.50
11908;DHT22;6014;47.690;9.130;2023-06-05T15:34:06;28.50;15.90
11908;DHT22;6014;47.690;9.130;2023-06-05T15:36:34;29.40;15.50
11908;DHT22;6014;47.690;9.130;2023-06-05T15:39:03;29.50;15.50
11908;DHT22;6014;47.690;9.130;2023-06-05T15:41:32;28.90;14.80
11908;DHT22;6014;47.690;9.130;2023-06-05T15:44:01;28.10;16.40
11908;DHT22;6014;47.690;9.130;2023-06-05T15:46:30;27.50;16.40
11908;DHT22;6014;47.690;9.130;2023-06-05T15:48:58;28.20;15.40
11908;DHT22;6014;47.690;9.130;2023-06-05T15:51:26;28.80;15.60
11908;DHT22;6014;47.690;9.130;2023-06-05T15:53:54;29.10;14.60
11908;DHT22;6014;47.690;9.130;2023-06-05T15:56:45;29.30;14.30
11908;DHT22;6014;47.690;9.130;2023-06-05T15:59:29;29.60;13.10
11908;DHT22;6014;47.690;9.130;2023-06-05T16:01:57;29.60;12.40
11908;DHT22;6014;47.690;9.130;2023-06-05T16:04:26;29.70;14.00
11908;DHT22;6014;47.690;9.130;2023-06-05T16:06:54;29.80;13.00